sensor_id;sensor_type;location;lat;lon;timestamp;P1;durP1;ratioP1;P2;durP2;ratioP2
32932;SDS011;19444;50.518;10.870;2023-02-28T00:02:31;2.97;;;2.45;;
32932;SDS011;19444;50.518;10.870;2023-02-28T00:05:28;4.63;;;2.78;;
32932;SDS011;19444;50.518;10.870;2023-02-28T00:08:25;6.55;;;3.45;;
32932;SDS011;19444;50.518;10.870;2023-02-28T00:11:23;4.25;;;2.90;;
32932;SDS011;19444;50.518;10.870;2023-02-28T00:14:19;4.88;;;2.58;;
32932;SDS011;19444;50.518;10.870;2023-02-28T00:17:16;6.18;;;3.20;;
32932;SDS011;19444;50.518;10.870;2023-02-28T00:20:14;5.35;;;2.88;;
32932;SDS011;19444;50.518;10.870;2023-02-28T00:23:12;3.22;;;2.60;;
32932;SDS011;19444;50.518;10.870;2023-02-28T00:26:08;4.45;;;3.20;;
32932;SDS011;19444;50.518;10.870;2023-02-28T00:29:05;5.80;;;2.70;;
32932;SDS011;19444;50.518;10.870;2023-02-28T00:32:02;4.30;;;2.70;;
32932;SDS011;19444;50.518;10.870;2023-02-28T00:35:01;3.47;;;2.72;;
32932;SDS011;19444;50.518;10.870;2023-02-28T00:37:58;4.68;;;2.90;;
32932;SDS011;19444;50.518;10.870;2023-02-28T00:40:55;4.78;;;2.97;;
32932;SDS011;19444;50.518;10.870;2023-02-28T00:43:52;3.15;;;2.60;;
32932;SDS011;19444;50.518;10.870;2023-02-28T00:46:49;3.83;;;2.85;;
32932;SDS011;19444;50.518;10.870;2023-02-28T00:49:46;3.65;;;2.75;;
32932;SDS011;19444;50.518;10.870;2023-02-28T00:52:43;3.72;;;2.58;;
32932;SDS011;19444;50.518;10.870;2023-02-28T00:55:40;3.83;;;2.50;;
32932;SDS011;19444;50.518;10.870;2023-02-28T00:58:37;3.40;;;2.72;;
32932;SDS011;19444;50.518;10.870;2023-02-28T01:01:34;3.38;;;2.63;;
32932;SDS011;19444;50.518;10.870;2023-02-28T01:04:31;3.88;;;2.40;;
32932;SDS011;19444;50.518;10.870;2023-02-28T01:07:28;3.33;;;2.72;;
32932;SDS011;19444;50.518;10.870;2023-02-28T01:10:25;3.70;;;2.60;;
32932;SDS011;19444;50.518;10.870;2023-02-28T01:13:27;3.58;;;2.58;;
32932;SDS011;19444;50.518;10.870;2023-02-28T01:16:24;4.15;;;2.65;;
32932;SDS011;19444;50.518;10.870;2023-02-28T01:19:21;3.90;;;2.65;;
32932;SDS011;19444;50.518;10.870;2023-02-28T01:22:18;5.53;;;2.78;;
32932;SDS011;19444;50.518;10.870;2023-02-28T01:25:15;5.38;;;2.70;;
32932;SDS011;19444;50.518;10.870;2023-02-28T01:28:12;3.30;;;2.60;;
32932;SDS011;19444;50.518;10.870;2023-02-28T01:31:09;3.00;;;2.53;;
32932;SDS011;19444;50.518;10.870;2023-02-28T01:34:06;4.95;;;2.60;;
32932;SDS011;19444;50.518;10.870;2023-02-28T01:37:03;4.22;;;2.92;;
32932;SDS011;19444;50.518;10.870;2023-02-28T01:40:00;4.22;;;2.78;;
32932;SDS011;19444;50.518;10.870;2023-02-28T01:42:57;3.60;;;2.80;;
32932;SDS011;19444;50.518;10.870;2023-02-28T01:45:54;3.42;;;2.33;;
32932;SDS011;19444;50.518;10.870;2023-02-28T01:49:07;4.30;;;2.50;;
32932;SDS011;19444;50.518;10.870;2023-02-28T01:52:11;4.13;;;2.50;;
32932;SDS011;19444;50.518;10.870;2023-02-28T01:55:14;3.67;;;2.50;;
32932;SDS011;19444;50.518;10.870;2023-02-28T01:58:14;3.55;;;2.53;;
32932;SDS011;19444;50.518;10.870;2023-02-28T02:01:12;5.45;;;2.72;;
32932;SDS011;19444;50.518;10.870;2023-02-28T02:04:17;5.47;;;3.10;;
32932;SDS011;19444;50.518;10.870;2023-02-28T02:07:15;3.60;;;2.70;;
32932;SDS011;19444;50.518;10.870;2023-02-28T02:10:20;4.43;;;2.80;;
32932;SDS011;19444;50.518;10.870;2023-02-28T02:13:29;4.82;;;2.85;;
32932;SDS011;19444;50.518;10.870;2023-02-28T02:17:14;4.25;;;2.65;;
32932;SDS011;19444;50.518;10.870;2023-02-28T02:38:43;3.80;;;3.00;;
32932;SDS011;19444;50.518;10.870;2023-02-28T02:42:29;5.00;;;3.35;;
32932;SDS011;19444;50.518;10.870;2023-02-28T02:45:51;7.90;;;3.97;;
32932;SDS011;19444;50.518;10.870;2023-02-28T02:48:59;5.95;;;3.40;;
32932;SDS011;19444;50.518;10.870;2023-02-28T02:52:02;6.38;;;3.33;;
32932;SDS011;19444;50.518;10.870;2023-02-28T02:55:02;4.25;;;2.88;;
32932;SDS011;19444;50.518;10.870;2023-02-28T02:58:02;4.88;;;3.25;;
32932;SDS011;19444;50.518;10.870;2023-02-28T03:01:04;5.82;;;3.80;;
32932;SDS011;19444;50.518;10.870;2023-02-28T03:04:12;4.65;;;3.28;;
32932;SDS011;19444;50.518;10.870;2023-02-28T03:07:19;6.13;;;4.07;;
32932;SDS011;19444;50.518;10.870;2023-02-28T03:13:58;4.13;;;3.38;;
32932;SDS011;19444;50.518;10.870;2023-02-28T03:20:39;6.07;;;4.07;;
32932;SDS011;19444;50.518;10.870;2023-02-28T03:24:33;5.95;;;3.83;;
32932;SDS011;19444;50.518;10.870;2023-02-28T03:28:23;5.90;;;3.95;;
32932;SDS011;19444;50.518;10.870;2023-02-28T03:31:37;5.68;;;4.25;;
32932;SDS011;19444;50.518;10.870;2023-02-28T03:34:42;7.03;;;4.30;;
32932;SDS011;19444;50.518;10.870;2023-02-28T03:37:52;5.88;;;4.25;;
32932;SDS011;19444;50.518;10.870;2023-02-28T03:41:16;6.05;;;4.13;;
32932;SDS011;19444;50.518;10.870;2023-02-28T03:47:32;6.75;;;4.03;;
32932;SDS011;19444;50.518;10.870;2023-02-28T03:50:57;5.95;;;4.10;;
32932;SDS011;19444;50.518;10.870;2023-02-28T03:54:04;7.32;;;4.40;;
32932;SDS011;19444;50.518;10.870;2023-02-28T03:57:07;5.15;;;4.18;;
32932;SDS011;19444;50.518;10.870;2023-02-28T04:00:17;6.53;;;4.72;;
32932;SDS011;19444;50.518;10.870;2023-02-28T04:03:27;7.82;;;5.25;;
32932;SDS011;19444;50.518;10.870;2023-02-28T04:06:24;7.45;;;5.03;;
32932;SDS011;19444;50.518;10.870;2023-02-28T04:09:21;5.90;;;4.57;;
32932;SDS011;19444;50.518;10.870;2023-02-28T04:12:18;7.68;;;5.22;;
32932;SDS011;19444;50.518;10.870;2023-02-28T04:15:15;8.00;;;4.90;;
32932;SDS011;19444;50.518;10.870;2023-02-28T04:18:12;6.70;;;5.00;;
32932;SDS011;19444;50.518;10.870;2023-02-28T04:21:09;7.30;;;4.72;;
32932;SDS011;19444;50.518;10.870;2023-02-28T04:24:07;7.05;;;4.90;;
32932;SDS011;19444;50.518;10.870;2023-02-28T04:27:10;7.05;;;4.50;;
32932;SDS011;19444;50.518;10.870;2023-02-28T04:30:07;12.07;;;5.05;;
32932;SDS011;19444;50.518;10.870;2023-02-28T04:33:05;6.90;;;5.47;;
32932;SDS011;19444;50.518;10.870;2023-02-28T04:36:03;10.13;;;5.43;;
32932;SDS011;19444;50.518;10.870;2023-02-28T04:39:04;8.60;;;5.88;;
32932;SDS011;19444;50.518;10.870;2023-02-28T04:42:01;8.40;;;5.93;;
32932;SDS011;19444;50.518;10.870;2023-02-28T04:44:58;10.05;;;5.95;;
32932;SDS011;19444;50.518;10.870;2023-02-28T04:47:54;9.25;;;5.70;;
32932;SDS011;19444;50.518;10.870;2023-02-28T04:50:51;17.38;;;9.07;;
32932;SDS011;19444;50.518;10.870;2023-02-28T04:53:48;9.52;;;6.50;;
32932;SDS011;19444;50.518;10.870;2023-02-28T04:56:45;10.93;;;5.68;;
32932;SDS011;19444;50.518;10.870;2023-02-28T04:59:44;10.75;;;6.68;;
32932;SDS011;19444;50.518;10.870;2023-02-28T05:02:41;10.13;;;6.43;;
32932;SDS011;19444;50.518;10.870;2023-02-28T05:05:38;9.02;;;6.30;;
32932;SDS011;19444;50.518;10.870;2023-02-28T05:08:36;7.82;;;4.70;;
32932;SDS011;19444;50.518;10.870;2023-02-28T05:11:34;7.22;;;5.68;;
32932;SDS011;19444;50.518;10.870;2023-02-28T05:14:32;7.53;;;4.97;;
32932;SDS011;19444;50.518;10.870;2023-02-28T05:17:29;10.48;;;5.55;;
32932;SDS011;19444;50.518;10.870;2023-02-28T05:20:26;9.07;;;5.70;;
32932;SDS011;19444;50.518;10.870;2023-02-28T05:23:23;9.55;;;6.28;;
32932;SDS011;19444;50.518;10.870;2023-02-28T05:26:20;9.80;;;6.18;;
32932;SDS011;19444;50.518;10.870;2023-02-28T05:29:17;8.90;;;6.53;;
32932;SDS011;19444;50.518;10.870;2023-02-28T05:32:18;8.90;;;6.93;;
32932;SDS011;19444;50.518;10.870;2023-02-28T05:35:15;10.25;;;6.65;;
32932;SDS011;19444;50.518;10.870;2023-02-28T05:38:12;11.90;;;6.90;;
32932;SDS011;19444;50.518;10.870;2023-02-28T05:41:10;10.75;;;6.20;;
32932;SDS011;19444;50.518;10.870;2023-02-28T05:44:07;9.15;;;6.75;;
32932;SDS011;19444;50.518;10.870;2023-02-28T05:47:05;11.25;;;7.72;;
32932;SDS011;19444;50.518;10.870;2023-02-28T05:50:02;10.55;;;6.57;;
32932;SDS011;19444;50.518;10.870;2023-02-28T05:53:00;10.68;;;6.78;;
32932;SDS011;19444;50.518;10.870;2023-02-28T05:55:58;11.00;;;7.03;;
32932;SDS011;19444;50.518;10.870;2023-02-28T05:58:55;9.93;;;7.30;;
32932;SDS011;19444;50.518;10.870;2023-02-28T06:01:52;12.02;;;7.22;;
32932;SDS011;19444;50.518;10.870;2023-02-28T06:04:49;12.15;;;6.57;;
32932;SDS011;19444;50.518;10.870;2023-02-28T06:07:46;11.27;;;6.43;;
32932;SDS011;19444;50.518;10.870;2023-02-28T06:10:43;12.65;;;7.28;;
32932;SDS011;19444;50.518;10.870;2023-02-28T06:13:41;12.02;;;7.05;;
32932;SDS011;19444;50.518;10.870;2023-02-28T06:16:38;8.77;;;6.47;;
32932;SDS011;19444;50.518;10.870;2023-02-28T06:19:36;9.93;;;7.32;;
32932;SDS011;19444;50.518;10.870;2023-02-28T06:22:37;11.63;;;7.20;;
32932;SDS011;19444;50.518;10.870;2023-02-28T06:25:35;10.45;;;6.50;;
32932;SDS011;19444;50.518;10.870;2023-02-28T06:28:32;11.70;;;7.50;;
32932;SDS011;19444;50.518;10.870;2023-02-28T06:31:29;11.35;;;7.53;;
32932;SDS011;19444;50.518;10.870;2023-02-28T06:34:27;10.35;;;6.75;;
32932;SDS011;19444;50.518;10.870;2023-02-28T06:37:24;11.95;;;8.00;;
32932;SDS011;19444;50.518;10.870;2023-02-28T06:40:24;10.05;;;7.22;;
32932;SDS011;19444;50.518;10.870;2023-02-28T06:43:21;11.27;;;7.10;;
32932;SDS011;19444;50.518;10.870;2023-02-28T06:46:19;10.88;;;8.15;;
32932;SDS011;19444;50.518;10.870;2023-02-28T06:49:17;10.90;;;7.57;;
32932;SDS011;19444;50.518;10.870;2023-02-28T06:52:14;11.93;;;7.40;;
32932;SDS011;19444;50.518;10.870;2023-02-28T06:55:11;10.63;;;6.57;;
32932;SDS011;19444;50.518;10.870;2023-02-28T06:58:09;10.52;;;7.18;;
32932;SDS011;19444;50.518;10.870;2023-02-28T07:01:13;10.02;;;7.43;;
32932;SDS011;19444;50.518;10.870;2023-02-28T07:04:10;12.85;;;6.95;;
32932;SDS011;19444;50.518;10.870;2023-02-28T07:07:07;10.35;;;7.47;;
32932;SDS011;19444;50.518;10.870;2023-02-28T07:10:04;13.15;;;8.00;;
32932;SDS011;19444;50.518;10.870;2023-02-28T07:13:01;8.93;;;5.65;;
32932;SDS011;19444;50.518;10.870;2023-02-28T07:16:00;11.02;;;6.85;;
32932;SDS011;19444;50.518;10.870;2023-02-28T07:19:00;13.98;;;9.00;;
32932;SDS011;19444;50.518;10.870;2023-02-28T07:21:57;12.68;;;8.15;;
32932;SDS011;19444;50.518;10.870;2023-02-28T07:24:54;13.77;;;7.10;;
32932;SDS011;19444;50.518;10.870;2023-02-28T07:27:51;13.48;;;7.50;;
32932;SDS011;19444;50.518;10.870;2023-02-28T07:30:47;14.75;;;7.97;;
32932;SDS011;19444;50.518;10.870;2023-02-28T07:33:45;12.05;;;7.65;;
32932;SDS011;19444;50.518;10.870;2023-02-28T07:36:42;11.82;;;7.60;;
32932;SDS011;19444;50.518;10.870;2023-02-28T07:39:39;11.23;;;7.80;;
32932;SDS011;19444;50.518;10.870;2023-02-28T07:42:38;11.88;;;7.18;;
32932;SDS011;19444;50.518;10.870;2023-02-28T07:45:36;12.30;;;7.95;;
32932;SDS011;19444;50.518;10.870;2023-02-28T07:48:33;12.32;;;6.88;;
32932;SDS011;19444;50.518;10.870;2023-02-28T07:51:30;14.05;;;7.68;;
32932;SDS011;19444;50.518;10.870;2023-02-28T07:54:28;13.23;;;7.63;;
32932;SDS011;19444;50.518;10.870;2023-02-28T07:57:25;11.57;;;7.22;;
32932;SDS011;19444;50.518;10.870;2023-02-28T08:00:22;14.15;;;8.38;;
32932;SDS011;19444;50.518;10.870;2023-02-28T08:03:20;10.52;;;7.05;;
32932;SDS011;19444;50.518;10.870;2023-02-28T08:06:20;10.52;;;7.32;;
32932;SDS011;19444;50.518;10.870;2023-02-28T08:09:19;11.82;;;7.72;;
32932;SDS011;19444;50.518;10.870;2023-02-28T08:12:16;9.02;;;6.85;;
32932;SDS011;19444;50.518;10.870;2023-02-28T08:15:13;13.80;;;8.05;;
32932;SDS011;19444;50.518;10.870;2023-02-28T08:18:09;12.25;;;7.05;;
32932;SDS011;19444;50.518;10.870;2023-02-28T08:21:07;10.48;;;6.35;;
32932;SDS011;19444;50.518;10.870;2023-02-28T08:24:05;14.80;;;8.65;;
32932;SDS011;19444;50.518;10.870;2023-02-28T08:27:02;14.73;;;9.25;;
32932;SDS011;19444;50.518;10.870;2023-02-28T08:29:59;11.75;;;7.20;;
32932;SDS011;19444;50.518;10.870;2023-02-28T08:32:56;13.77;;;8.10;;
32932;SDS011;19444;50.518;10.870;2023-02-28T08:35:54;10.10;;;6.82;;
32932;SDS011;19444;50.518;10.870;2023-02-28T08:38:52;12.20;;;7.32;;
32932;SDS011;19444;50.518;10.870;2023-02-28T08:41:49;10.00;;;6.28;;
32932;SDS011;19444;50.518;10.870;2023-02-28T08:45:02;8.52;;;6.00;;
32932;SDS011;19444;50.518;10.870;2023-02-28T08:47:59;8.75;;;5.93;;
32932;SDS011;19444;50.518;10.870;2023-02-28T08:54:03;8.15;;;5.90;;
32932;SDS011;19444;50.518;10.870;2023-02-28T08:57:00;6.30;;;4.72;;
32932;SDS011;19444;50.518;10.870;2023-02-28T08:59:58;18.45;;;9.48;;
32932;SDS011;19444;50.518;10.870;2023-02-28T09:02:55;11.23;;;7.25;;
32932;SDS011;19444;50.518;10.870;2023-02-28T09:05:55;9.85;;;7.00;;
32932;SDS011;19444;50.518;10.870;2023-02-28T09:08:57;9.52;;;6.43;;
32932;SDS011;19444;50.518;10.870;2023-02-28T09:12:00;8.95;;;5.85;;
32932;SDS011;19444;50.518;10.870;2023-02-28T09:14:58;8.75;;;6.13;;
32932;SDS011;19444;50.518;10.870;2023-02-28T09:17:55;9.35;;;5.22;;
32932;SDS011;19444;50.518;10.870;2023-02-28T09:20:51;6.35;;;4.80;;
32932;SDS011;19444;50.518;10.870;2023-02-28T09:23:49;8.65;;;5.57;;
32932;SDS011;19444;50.518;10.870;2023-02-28T09:26:47;7.20;;;4.45;;
32932;SDS011;19444;50.518;10.870;2023-02-28T09:29:58;8.65;;;5.18;;
32932;SDS011;19444;50.518;10.870;2023-02-28T09:32:55;10.00;;;5.80;;
32932;SDS011;19444;50.518;10.870;2023-02-28T09:35:57;8.68;;;5.82;;
32932;SDS011;19444;50.518;10.870;2023-02-28T09:39:00;8.20;;;5.30;;
32932;SDS011;19444;50.518;10.870;2023-02-28T09:41:57;8.35;;;5.63;;
32932;SDS011;19444;50.518;10.870;2023-02-28T09:44:54;8.65;;;5.03;;
32932;SDS011;19444;50.518;10.870;2023-02-28T09:47:54;7.80;;;4.75;;
32932;SDS011;19444;50.518;10.870;2023-02-28T09:51:02;10.60;;;6.22;;
32932;SDS011;19444;50.518;10.870;2023-02-28T09:54:31;8.32;;;5.00;;
32932;SDS011;19444;50.518;10.870;2023-02-28T09:57:33;6.97;;;5.28;;
32932;SDS011;19444;50.518;10.870;2023-02-28T10:00:37;5.80;;;4.20;;
32932;SDS011;19444;50.518;10.870;2023-02-28T10:03:40;6.05;;;4.65;;
32932;SDS011;19444;50.518;10.870;2023-02-28T10:07:06;6.85;;;4.43;;
32932;SDS011;19444;50.518;10.870;2023-02-28T10:20:11;5.03;;;3.83;;
32932;SDS011;19444;50.518;10.870;2023-02-28T10:23:28;7.85;;;4.07;;
32932;SDS011;19444;50.518;10.870;2023-02-28T10:26:31;6.65;;;4.13;;
32932;SDS011;19444;50.518;10.870;2023-02-28T10:29:29;7.68;;;4.03;;
32932;SDS011;19444;50.518;10.870;2023-02-28T10:32:30;6.90;;;4.40;;
32932;SDS011;19444;50.518;10.870;2023-02-28T10:35:32;9.52;;;5.07;;
32932;SDS011;19444;50.518;10.870;2023-02-28T10:41:32;7.70;;;4.82;;
32932;SDS011;19444;50.518;10.870;2023-02-28T10:44:32;5.57;;;4.32;;
32932;SDS011;19444;50.518;10.870;2023-02-28T10:47:29;6.43;;;3.88;;
32932;SDS011;19444;50.518;10.870;2023-02-28T10:50:37;6.63;;;4.18;;
32932;SDS011;19444;50.518;10.870;2023-02-28T10:53:45;7.90;;;3.58;;
32932;SDS011;19444;50.518;10.870;2023-02-28T10:57:04;6.75;;;3.72;;
32932;SDS011;19444;50.518;10.870;2023-02-28T11:00:18;5.60;;;3.50;;
32932;SDS011;19444;50.518;10.870;2023-02-28T11:03:28;6.38;;;3.97;;
32932;SDS011;19444;50.518;10.870;2023-02-28T11:06:29;6.47;;;3.75;;
32932;SDS011;19444;50.518;10.870;2023-02-28T11:09:33;5.65;;;3.60;;
32932;SDS011;19444;50.518;10.870;2023-02-28T11:12:34;4.32;;;3.47;;
32932;SDS011;19444;50.518;10.870;2023-02-28T11:15:51;7.82;;;5.10;;
32932;SDS011;19444;50.518;10.870;2023-02-28T11:18:55;8.48;;;5.57;;
32932;SDS011;19444;50.518;10.870;2023-02-28T11:21:55;6.15;;;4.50;;
32932;SDS011;19444;50.518;10.870;2023-02-28T11:24:59;9.73;;;5.55;;
32932;SDS011;19444;50.518;10.870;2023-02-28T11:28:06;7.97;;;5.35;;
32932;SDS011;19444;50.518;10.870;2023-02-28T11:31:34;6.47;;;4.38;;
32932;SDS011;19444;50.518;10.870;2023-02-28T11:34:31;8.43;;;4.82;;
32932;SDS011;19444;50.518;10.870;2023-02-28T11:37:29;7.28;;;4.28;;
32932;SDS011;19444;50.518;10.870;2023-02-28T11:43:56;5.55;;;4.20;;
32932;SDS011;19444;50.518;10.870;2023-02-28T11:47:10;10.88;;;5.03;;
32932;SDS011;19444;50.518;10.870;2023-02-28T11:53:54;7.05;;;4.43;;
32932;SDS011;19444;50.518;10.870;2023-02-28T11:57:51;9.43;;;5.15;;
32932;SDS011;19444;50.518;10.870;2023-02-28T12:04:40;7.82;;;5.00;;
32932;SDS011;19444;50.518;10.870;2023-02-28T12:08:06;5.70;;;4.07;;
32932;SDS011;19444;50.518;10.870;2023-02-28T12:15:05;6.82;;;4.32;;
32932;SDS011;19444;50.518;10.870;2023-02-28T12:18:45;7.57;;;4.65;;
32932;SDS011;19444;50.518;10.870;2023-02-28T12:22:31;7.35;;;4.63;;
32932;SDS011;19444;50.518;10.870;2023-02-28T12:29:30;8.02;;;4.90;;
32932;SDS011;19444;50.518;10.870;2023-02-28T12:32:42;6.75;;;4.65;;
32932;SDS011;19444;50.518;10.870;2023-02-28T12:38:55;10.45;;;5.28;;
32932;SDS011;19444;50.518;10.870;2023-02-28T12:42:01;8.38;;;4.90;;
32932;SDS011;19444;50.518;10.870;2023-02-28T12:45:27;8.48;;;4.78;;
32932;SDS011;19444;50.518;10.870;2023-02-28T12:51:59;6.90;;;4.43;;
32932;SDS011;19444;50.518;10.870;2023-02-28T12:58:43;6.55;;;4.88;;
32932;SDS011;19444;50.518;10.870;2023-02-28T13:05:44;6.72;;;4.57;;
32932;SDS011;19444;50.518;10.870;2023-02-28T13:09:15;7.95;;;4.78;;
32932;SDS011;19444;50.518;10.870;2023-02-28T13:12:13;7.45;;;4.95;;
32932;SDS011;19444;50.518;10.870;2023-02-28T13:18:36;8.15;;;5.18;;
32932;SDS011;19444;50.518;10.870;2023-02-28T13:21:43;8.77;;;4.63;;
32932;SDS011;19444;50.518;10.870;2023-02-28T13:24:58;8.80;;;5.25;;
32932;SDS011;19444;50.518;10.870;2023-02-28T13:27:56;5.68;;;3.42;;
32932;SDS011;19444;50.518;10.870;2023-02-28T13:43:19;12.23;;;6.75;;
32932;SDS011;19444;50.518;10.870;2023-02-28T13:46:31;7.45;;;5.03;;
32932;SDS011;19444;50.518;10.870;2023-02-28T13:49:50;8.55;;;5.70;;
32932;SDS011;19444;50.518;10.870;2023-02-28T13:52:54;5.63;;;4.40;;
32932;SDS011;19444;50.518;10.870;2023-02-28T14:03:46;7.40;;;5.13;;
32932;SDS011;19444;50.518;10.870;2023-02-28T14:07:06;8.55;;;5.10;;
32932;SDS011;19444;50.518;10.870;2023-02-28T14:10:06;7.80;;;6.07;;
32932;SDS011;19444;50.518;10.870;2023-02-28T14:13:13;7.90;;;5.82;;
32932;SDS011;19444;50.518;10.870;2023-02-28T14:19:46;7.78;;;5.18;;
32932;SDS011;19444;50.518;10.870;2023-02-28T14:36:37;9.88;;;6.25;;
32932;SDS011;19444;50.518;10.870;2023-02-28T14:39:40;10.15;;;5.25;;
32932;SDS011;19444;50.518;10.870;2023-02-28T14:42:39;13.18;;;7.70;;
32932;SDS011;19444;50.518;10.870;2023-02-28T14:45:53;12.27;;;7.97;;
32932;SDS011;19444;50.518;10.870;2023-02-28T14:49:03;10.40;;;7.65;;
32932;SDS011;19444;50.518;10.870;2023-02-28T14:52:05;9.90;;;7.10;;
32932;SDS011;19444;50.518;10.870;2023-02-28T14:55:06;10.38;;;7.30;;
32932;SDS011;19444;50.518;10.870;2023-02-28T14:58:18;9.88;;;6.75;;
32932;SDS011;19444;50.518;10.870;2023-02-28T15:01:23;10.45;;;5.95;;
32932;SDS011;19444;50.518;10.870;2023-02-28T15:04:26;14.30;;;8.02;;
32932;SDS011;19444;50.518;10.870;2023-02-28T15:07:23;27.27;;;16.33;;
32932;SDS011;19444;50.518;10.870;2023-02-28T15:10:25;64.18;;;34.08;;
32932;SDS011;19444;50.518;10.870;2023-02-28T15:13:26;77.15;;;39.40;;
32932;SDS011;19444;50.518;10.870;2023-02-28T15:16:37;12.32;;;7.72;;
32932;SDS011;19444;50.518;10.870;2023-02-28T15:19:39;17.42;;;10.25;;
32932;SDS011;19444;50.518;10.870;2023-02-28T15:22:40;53.22;;;23.23;;
32932;SDS011;19444;50.518;10.870;2023-02-28T15:25:38;12.13;;;8.13;;
32932;SDS011;19444;50.518;10.870;2023-02-28T15:28:37;25.20;;;13.05;;
32932;SDS011;19444;50.518;10.870;2023-02-28T15:31:35;31.08;;;16.52;;
32932;SDS011;19444;50.518;10.870;2023-02-28T15:34:52;17.50;;;10.32;;
32932;SDS011;19444;50.518;10.870;2023-02-28T15:37:57;12.88;;;8.30;;
32932;SDS011;19444;50.518;10.870;2023-02-28T15:41:25;13.35;;;7.75;;
32932;SDS011;19444;50.518;10.870;2023-02-28T15:44:27;54.35;;;26.33;;
32932;SDS011;19444;50.518;10.870;2023-02-28T15:47:31;28.85;;;13.50;;
32932;SDS011;19444;50.518;10.870;2023-02-28T15:50:28;37.13;;;19.35;;
32932;SDS011;19444;50.518;10.870;2023-02-28T15:53:31;14.55;;;9.13;;
32932;SDS011;19444;50.518;10.870;2023-02-28T15:56:34;56.28;;;27.27;;
32932;SDS011;19444;50.518;10.870;2023-02-28T15:59:39;94.93;;;42.60;;
32932;SDS011;19444;50.518;10.870;2023-02-28T16:02:41;47.38;;;24.35;;
32932;SDS011;19444;50.518;10.870;2023-02-28T16:05:40;109.22;;;46.40;;
32932;SDS011;19444;50.518;10.870;2023-02-28T16:08:37;39.60;;;23.38;;
32932;SDS011;19444;50.518;10.870;2023-02-28T16:11:36;60.92;;;31.33;;
32932;SDS011;19444;50.518;10.870;2023-02-28T16:14:38;36.63;;;19.77;;
32932;SDS011;19444;50.518;10.870;2023-02-28T16:17:37;17.00;;;10.80;;
32932;SDS011;19444;50.518;10.870;2023-02-28T16:20:35;20.73;;;10.50;;
32932;SDS011;19444;50.518;10.870;2023-02-28T16:23:32;31.48;;;17.30;;
32932;SDS011;19444;50.518;10.870;2023-02-28T16:26:29;48.03;;;23.02;;
32932;SDS011;19444;50.518;10.870;2023-02-28T16:29:27;41.05;;;22.05;;
32932;SDS011;19444;50.518;10.870;2023-02-28T16:32:28;15.40;;;9.52;;
32932;SDS011;19444;50.518;10.870;2023-02-28T16:35:26;39.42;;;19.88;;
32932;SDS011;19444;50.518;10.870;2023-02-28T16:38:23;38.05;;;18.30;;
32932;SDS011;19444;50.518;10.870;2023-02-28T16:41:23;37.67;;;19.88;;
32932;SDS011;19444;50.518;10.870;2023-02-28T16:44:29;24.50;;;14.32;;
32932;SDS011;19444;50.518;10.870;2023-02-28T16:47:30;43.00;;;23.08;;
32932;SDS011;19444;50.518;10.870;2023-02-28T16:50:29;34.17;;;17.98;;
32932;SDS011;19444;50.518;10.870;2023-02-28T16:53:28;15.93;;;9.17;;
32932;SDS011;19444;50.518;10.870;2023-02-28T16:56:25;18.52;;;10.25;;
32932;SDS011;19444;50.518;10.870;2023-02-28T16:59:23;17.42;;;10.00;;
32932;SDS011;19444;50.518;10.870;2023-02-28T17:02:22;15.20;;;10.13;;
32932;SDS011;19444;50.518;10.870;2023-02-28T17:05:19;15.73;;;9.20;;
32932;SDS011;19444;50.518;10.870;2023-02-28T17:08:17;14.40;;;9.40;;
32932;SDS011;19444;50.518;10.870;2023-02-28T17:11:15;18.58;;;9.00;;
32932;SDS011;19444;50.518;10.870;2023-02-28T17:14:12;18.90;;;9.27;;
32932;SDS011;19444;50.518;10.870;2023-02-28T17:17:17;19.77;;;11.93;;
32932;SDS011;19444;50.518;10.870;2023-02-28T17:20:18;17.73;;;10.52;;
32932;SDS011;19444;50.518;10.870;2023-02-28T17:23:20;33.65;;;15.77;;
32932;SDS011;19444;50.518;10.870;2023-02-28T17:26:18;18.33;;;10.23;;
32932;SDS011;19444;50.518;10.870;2023-02-28T17:29:18;17.75;;;11.18;;
32932;SDS011;19444;50.518;10.870;2023-02-28T17:32:17;19.42;;;11.27;;
32932;SDS011;19444;50.518;10.870;2023-02-28T17:35:15;22.48;;;11.88;;
32932;SDS011;19444;50.518;10.870;2023-02-28T17:38:17;16.42;;;9.13;;
32932;SDS011;19444;50.518;10.870;2023-02-28T17:41:15;20.50;;;14.40;;
32932;SDS011;19444;50.518;10.870;2023-02-28T17:44:12;17.10;;;11.23;;
32932;SDS011;19444;50.518;10.870;2023-02-28T17:47:09;17.98;;;10.35;;
32932;SDS011;19444;50.518;10.870;2023-02-28T17:50:12;18.65;;;10.90;;
32932;SDS011;19444;50.518;10.870;2023-02-28T17:53:16;36.53;;;20.85;;
32932;SDS011;19444;50.518;10.870;2023-02-28T17:56:13;22.83;;;12.25;;
32932;SDS011;19444;50.518;10.870;2023-02-28T17:59:21;23.50;;;14.98;;
32932;SDS011;19444;50.518;10.870;2023-02-28T18:02:18;22.98;;;13.57;;
32932;SDS011;19444;50.518;10.870;2023-02-28T18:05:15;25.92;;;14.45;;
32932;SDS011;19444;50.518;10.870;2023-02-28T18:08:12;21.45;;;12.20;;
32932;SDS011;19444;50.518;10.870;2023-02-28T18:11:10;16.80;;;10.50;;
32932;SDS011;19444;50.518;10.870;2023-02-28T18:14:13;26.63;;;12.65;;
32932;SDS011;19444;50.518;10.870;2023-02-28T18:17:11;33.10;;;15.45;;
32932;SDS011;19444;50.518;10.870;2023-02-28T18:20:09;31.65;;;17.65;;
32932;SDS011;19444;50.518;10.870;2023-02-28T18:23:06;22.25;;;12.55;;
32932;SDS011;19444;50.518;10.870;2023-02-28T18:26:07;21.23;;;11.98;;
32932;SDS011;19444;50.518;10.870;2023-02-28T18:29:04;21.25;;;11.82;;
32932;SDS011;19444;50.518;10.870;2023-02-28T18:32:02;20.77;;;11.98;;
32932;SDS011;19444;50.518;10.870;2023-02-28T18:35:01;35.13;;;18.40;;
32932;SDS011;19444;50.518;10.870;2023-02-28T18:37:57;18.23;;;10.50;;
32932;SDS011;19444;50.518;10.870;2023-02-28T18:40:55;29.95;;;15.13;;
32932;SDS011;19444;50.518;10.870;2023-02-28T18:43:56;36.65;;;18.95;;
32932;SDS011;19444;50.518;10.870;2023-02-28T18:46:54;29.52;;;16.25;;
32932;SDS011;19444;50.518;10.870;2023-02-28T18:49:51;32.90;;;18.33;;
32932;SDS011;19444;50.518;10.870;2023-02-28T18:52:48;38.13;;;19.98;;
32932;SDS011;19444;50.518;10.870;2023-02-28T18:55:46;48.70;;;25.80;;
32932;SDS011;19444;50.518;10.870;2023-02-28T18:58:43;43.10;;;22.05;;
32932;SDS011;19444;50.518;10.870;2023-02-28T19:01:40;51.13;;;25.10;;
32932;SDS011;19444;50.518;10.870;2023-02-28T19:04:39;34.15;;;17.90;;
32932;SDS011;19444;50.518;10.870;2023-02-28T19:07:37;21.33;;;10.82;;
32932;SDS011;19444;50.518;10.870;2023-02-28T19:10:36;29.58;;;15.68;;
32932;SDS011;19444;50.518;10.870;2023-02-28T19:13:36;27.75;;;13.52;;
32932;SDS011;19444;50.518;10.870;2023-02-28T19:16:34;21.30;;;12.77;;
32932;SDS011;19444;50.518;10.870;2023-02-28T19:19:31;23.13;;;12.60;;
32932;SDS011;19444;50.518;10.870;2023-02-28T19:22:28;31.65;;;17.42;;
32932;SDS011;19444;50.518;10.870;2023-02-28T19:25:25;33.38;;;16.98;;
32932;SDS011;19444;50.518;10.870;2023-02-28T19:28:22;27.65;;;15.07;;
32932;SDS011;19444;50.518;10.870;2023-02-28T19:31:21;50.40;;;23.60;;
32932;SDS011;19444;50.518;10.870;2023-02-28T19:34:21;29.73;;;15.27;;
32932;SDS011;19444;50.518;10.870;2023-02-28T19:37:17;34.58;;;16.15;;
32932;SDS011;19444;50.518;10.870;2023-02-28T19:40:14;59.92;;;27.67;;
32932;SDS011;19444;50.518;10.870;2023-02-28T19:43:12;61.40;;;25.80;;
32932;SDS011;19444;50.518;10.870;2023-02-28T19:46:09;24.00;;;13.55;;
32932;SDS011;19444;50.518;10.870;2023-02-28T19:49:07;29.02;;;16.02;;